Terminal Aerodrome Forecast
Issued by NWS

Home | Current Version | Previous Version | Text Only | Print | Product List | Glossary On
Versions: 1 2 3 4 5 6 7 8 9 10 11 12 13 14 15 16 17 18 19 20
395
FTUS44 KMAF 270630 AAA
TAFPEQ
TAF AMD
KPEQ 270630Z 2707/2806 25006KT P6SM FEW200
     FM271200 28010KT P6SM SKC
     FM271600 26015G25KT P6SM SKC
     FM280200 23005KT P6SM FEW200=

USA.gov is the U.S. government's official web portal to all federal, state and local government web resources and services.